Weather reports worldwide

Advertisment
San Vicente, Spain (8017): temperature & dewpoint: 16.08.2019 20:00:00 - 22.08.2019 20:00:00 (CEST)San Vicente, Spain (8017): wind speed & gusts: 16.08.2019 20:00:00 - 22.08.2019 20:00:00 (CEST)San Vicente, Spain (8017): wind direction: 16.08.2019 20:00:00 - 22.08.2019 20:00:00 (CEST)San Vicente, Spain (8017): reduced air pressure: 16.08.2019 20:00:00 - 22.08.2019 20:00:00 (CEST)San Vicente, Spain (8017): precipitation: 16.08.2019 20:00:00 - 22.08.2019 20:00:00 (CEST)
Date & Time tt [°C] td [°C] ff [km/h] ff [kn] fx [km/h] fx [kn] dd ppp [hPa] rr [mm]
22.08.2019 20:00:00 - - - - - - - - -
22.08.2019 19:00:00 22,5 20,1 24 13 38 20 ENE 1020,3 0,0
22.08.2019 18:00:00 22,5 20,4 27 14 39 21 ENE 1020,8 0,0
22.08.2019 17:00:00 22,8 20,3 24 13 35 19 ENE 1021,0 0,0
22.08.2019 16:00:00 22,8 20,3 24 13 33 18 ENE 1021,5 0,0
22.08.2019 15:00:00 22,4 19,8 23 13 32 17 ENE 1022,0 0,0
22.08.2019 14:00:00 22,6 19,6 20 11 27 15 ENE 1022,6 -
22.08.2019 13:00:00 23,2 18,9 14 8 21 11 ENE 1023,0 0,0
22.08.2019 12:00:00 23,0 17,2 11 6 16 9 ENE 1023,3 0,0
22.08.2019 11:00:00 22,5 15,8 6 3 13 7 E 1023,2 0,0
22.08.2019 10:00:00 19,1 16,3 9 5 16 9 SSW 1023,3 0,0
22.08.2019 09:00:00 16,1 14,6 11 6 21 11 SSW 1023,4 0,0
22.08.2019 08:00:00 14,3 13,1 14 7 19 10 SSW 1022,9 -
22.08.2019 07:00:00 14,1 12,8 15 8 20 11 SSW 1022,5 0,0
22.08.2019 06:00:00 14,4 13,2 13 7 16 9 SSW 1022,1 0,0
22.08.2019 05:00:00 14,9 13,7 13 7 16 8 SSW 1022,2 0,0
22.08.2019 04:00:00 15,5 14,2 13 7 17 9 SSW 1022,5 0,0
22.08.2019 03:00:00 16,3 15,0 10 5 16 8 S 1022,9 0,0
22.08.2019 02:00:00 17,3 16,0 8 4 14 7 S 1023,5 -
22.08.2019 01:00:00 17,8 16,5 11 6 15 8 S 1023,5 0,0
22.08.2019 00:00:00 18,5 17,1 10 5 13 7 S 1023,8 0,0
21.08.2019 23:00:00 19,0 17,7 8 5 13 7 SSW 1024,0 0,0
21.08.2019 22:00:00 20,5 18,6 5 3 11 6 ESE 1023,6 0,0
21.08.2019 21:00:00 21,5 18,8 5 3 13 7 E 1022,9 0,0
21.08.2019 20:00:00 22,2 19,2 9 5 16 9 ENE 1022,4 -
21.08.2019 19:00:00 22,1 18,9 13 7 20 11 ENE 1022,2 0,0
21.08.2019 18:00:00 22,2 19,0 16 9 24 13 ENE 1022,0 0,0
21.08.2019 17:00:00 22,2 19,0 18 10 26 14 ENE 1021,9 0,0
21.08.2019 16:00:00 22,5 18,5 19 10 25 14 ENE 1021,9 0,0
21.08.2019 15:00:00 22,9 17,8 15 8 24 13 ENE 1022,0 0,0
21.08.2019 14:00:00 23,1 18,4 11 6 20 11 ENE 1021,9 -
21.08.2019 13:00:00 22,2 18,2 6 4 14 7 NE 1022,4 0,0
21.08.2019 12:00:00 20,8 16,4 1 1 5 3 NNE 1022,8 0,0
21.08.2019 11:00:00 20,3 16,0 1 1 10 5 NNW 1022,6 0,0
21.08.2019 10:00:00 19,7 16,3 3 1 14 8 SW 1022,5 0,0
21.08.2019 09:00:00 16,4 14,4 11 6 17 9 SSW 1022,4 0,0
21.08.2019 08:00:00 15,4 13,6 10 6 14 8 SSW 1022,3 -
21.08.2019 07:00:00 15,7 13,8 9 5 17 9 S 1022,1 0,0
21.08.2019 06:00:00 15,9 13,9 10 5 16 9 S 1022,3 0,0
21.08.2019 05:00:00 16,5 14,7 10 6 19 10 SSE 1022,9 0,0
21.08.2019 04:00:00 15,5 14,0 13 7 20 11 S 1023,2 0,0
21.08.2019 03:00:00 15,1 13,9 12 7 15 8 S 1023,9 0,0
21.08.2019 02:00:00 15,7 14,4 8 5 17 9 S 1024,3 -
21.08.2019 01:00:00 17,0 15,3 8 4 14 8 SSE 1024,6 0,0
21.08.2019 00:00:00 17,1 15,3 10 5 15 8 S 1025,0 0,0
20.08.2019 23:00:00 18,5 15,0 10 5 16 9 SE 1024,9 0,0
20.08.2019 22:00:00 19,1 15,2 9 5 31 17 ESE 1024,7 0,0
20.08.2019 21:00:00 20,4 15,8 16 8 35 19 E 1024,3 0,0
20.08.2019 20:00:00 20,7 15,9 21 11 35 19 ENE 1024,4 -
20.08.2019 19:00:00 21,2 16,4 23 12 31 17 ENE 1024,2 0,0
20.08.2019 18:00:00 21,6 16,7 20 11 27 14 ENE 1024,1 0,0
20.08.2019 17:00:00 22,1 16,1 16 8 24 13 ENE 1024,4 0,0
20.08.2019 16:00:00 22,6 15,4 12 7 21 11 ENE 1024,9 0,0
20.08.2019 15:00:00 22,6 17,1 6 4 12 6 ENE 1025,1 0,0
20.08.2019 14:00:00 21,9 17,1 5 3 9 5 NNE 1025,0 -
20.08.2019 13:00:00 21,3 16,9 5 3 9 5 N 1025,2 0,0
20.08.2019 12:00:00 21,3 17,5 3 1 13 7 NNE 1024,9 0,0
20.08.2019 11:00:00 19,2 17,9 5 3 11 6 SSW 1024,7 0,0
20.08.2019 10:00:00 17,4 16,0 8 4 16 9 S 1024,1 0,0
20.08.2019 09:00:00 16,9 15,6 10 6 16 9 S 1023,8 2,1
20.08.2019 08:00:00 16,7 15,4 11 6 13 7 SSW 1023,0 -
20.08.2019 07:00:00 16,9 15,6 8 4 13 7 SSW 1022,6 0,0
20.08.2019 06:00:00 16,6 15,3 8 4 14 7 SW 1022,1 0,0
20.08.2019 05:00:00 16,5 15,0 10 5 15 8 S 1022,1 0,0
20.08.2019 04:00:00 16,8 15,5 8 5 18 10 SW 1022,0 0,0
20.08.2019 03:00:00 16,6 15,3 9 5 16 9 SW 1022,3 0,0
20.08.2019 02:00:00 16,3 15,0 7 4 18 10 SW 1022,5 -
20.08.2019 01:00:00 16,6 15,3 3 2 13 7 SW 1022,5 1,4
20.08.2019 00:00:00 16,8 15,5 8 5 14 8 SSW 1022,4 0,1
19.08.2019 23:00:00 16,9 15,6 8 4 18 10 SSW 1022,6 0,1
19.08.2019 22:00:00 17,5 16,0 10 6 19 10 SSW 1021,9 0,0
19.08.2019 21:00:00 19,0 16,4 1 0 26 14 NNE 1021,9 0,0
19.08.2019 20:00:00 19,5 16,3 2 1 11 6 WSW 1021,5 -
19.08.2019 19:00:00 20,2 15,4 6 4 15 8 ENE 1021,5 0,0
19.08.2019 18:00:00 20,5 16,1 6 4 14 7 NNE 1021,3 0,0
19.08.2019 17:00:00 21,1 16,7 3 2 16 9 E 1021,3 0,0
19.08.2019 16:00:00 20,4 16,6 7 4 16 9 NE 1021,4 0,0
19.08.2019 15:00:00 20,1 16,0 11 6 24 13 NNE 1021,6 0,0
19.08.2019 14:00:00 20,9 15,0 8 5 14 8 ENE 1021,6 -
19.08.2019 13:00:00 20,5 14,6 5 3 13 7 NNE 1021,3 0,0
19.08.2019 12:00:00 20,3 16,0 6 3 21 11 SE 1021,0 0,0
19.08.2019 11:00:00 18,0 16,1 10 6 18 10 SSE 1020,9 0,0
19.08.2019 10:00:00 17,1 15,8 10 6 18 10 SSE 1020,5 0,0
19.08.2019 09:00:00 16,3 15,0 10 5 16 9 S 1020,7 0,0
19.08.2019 08:00:00 15,8 14,5 6 3 16 9 SSW 1020,6 -
19.08.2019 07:00:00 16,0 14,7 9 5 33 18 S 1020,5 1,2
19.08.2019 06:00:00 16,5 15,2 10 5 24 13 E 1020,4 1,0
19.08.2019 05:00:00 16,9 15,1 6 3 15 8 SSW 1020,1 0,0
19.08.2019 04:00:00 16,6 15,2 5 3 12 7 SSW 1020,0 0,0
19.08.2019 03:00:00 16,7 15,4 4 2 10 5 SSW 1020,4 0,0
19.08.2019 02:00:00 16,7 15,3 6 3 15 8 S 1020,6 -
19.08.2019 01:00:00 16,8 15,3 8 5 17 9 W 1020,9 0,0
19.08.2019 00:00:00 16,8 15,3 7 4 18 10 SSW 1020,5 0,0
18.08.2019 23:00:00 16,6 15,3 3 2 14 8 WSW 1020,3 0,0
18.08.2019 22:00:00 17,0 15,7 3 2 18 10 SSW 1019,4 0,0
18.08.2019 21:00:00 17,4 16,0 3 2 15 8 SSW 1018,9 0,0
18.08.2019 20:00:00 17,4 16,0 7 4 22 12 W 1018,4 -
18.08.2019 19:00:00 18,0 16,8 1 0 15 8 W 1018,2 0,2
18.08.2019 18:00:00 17,6 16,5 15 8 41 22 W 1018,0 1,7
18.08.2019 17:00:00 17,8 16,6 18 10 33 18 WNW 1017,6 2,5
18.08.2019 16:00:00 18,4 17,2 14 8 32 17 WNW 1017,0 5,6
18.08.2019 15:00:00 18,3 17,1 14 8 33 18 WNW 1016,3 1,3
18.08.2019 14:00:00 18,7 17,5 18 10 36 19 WNW 1016,2 -
18.08.2019 13:00:00 19,5 18,3 18 10 41 22 NW 1015,4 0,0
18.08.2019 12:00:00 20,0 18,8 23 13 40 22 NW 1014,4 0,9
18.08.2019 11:00:00 20,6 19,4 19 10 37 20 NW 1013,6 0,3
18.08.2019 10:00:00 21,1 19,8 18 10 39 21 NW 1013,1 0,0
18.08.2019 09:00:00 20,9 19,0 4 2 10 5 SSW 1012,3 0,0
18.08.2019 08:00:00 20,3 18,6 8 4 11 6 SSW 1011,3 -
18.08.2019 07:00:00 19,9 18,4 5 3 12 6 SW 1010,7 0,0
18.08.2019 06:00:00 19,8 18,3 8 4 10 6 SSW 1010,0 0,0
18.08.2019 05:00:00 21,7 19,6 9 5 23 12 W 1010,1 0,0
18.08.2019 04:00:00 20,8 19,1 4 2 21 11 WSW 1009,9 0,0
18.08.2019 03:00:00 19,7 18,4 7 4 13 7 SW 1009,7 0,0
18.08.2019 02:00:00 20,0 18,7 9 5 14 8 SSW 1010,0 -
18.08.2019 01:00:00 20,2 18,8 9 5 12 6 SSW 1010,8 0,0
18.08.2019 00:00:00 21,1 19,4 8 5 12 6 SSW 1011,6 0,0
17.08.2019 23:00:00 22,5 20,6 2 1 10 5 SSE 1012,3 0,0
17.08.2019 22:00:00 22,9 20,6 5 3 17 9 E 1012,3 0,0
17.08.2019 21:00:00 23,7 20,1 11 6 21 11 E 1012,2 0,0
17.08.2019 20:00:00 24,8 19,4 5 3 16 8 E 1012,3 -
17.08.2019 19:00:00 25,1 19,9 5 3 14 8 E 1012,9 0,0
17.08.2019 18:00:00 25,5 19,8 10 5 16 8 ENE 1013,3 0,0
17.08.2019 17:00:00 25,8 18,7 9 5 14 7 ENE 1013,4 0,0
17.08.2019 16:00:00 26,2 19,3 8 5 12 7 ENE 1013,8 0,0
17.08.2019 15:00:00 25,7 20,3 6 4 11 6 ENE 1014,3 0,0
17.08.2019 14:00:00 24,0 20,5 4 2 7 4 NNE 1014,7 -
17.08.2019 13:00:00 24,0 19,7 3 2 7 4 ENE 1015,2 0,0
17.08.2019 12:00:00 23,0 20,0 4 2 14 8 NNE 1015,5 0,0
17.08.2019 11:00:00 23,1 19,8 8 4 13 7 NW 1015,7 0,0
17.08.2019 10:00:00 22,2 19,3 2 1 13 7 N 1015,5 0,0
17.08.2019 09:00:00 19,7 18,0 3 2 16 9 SW 1015,5 0,0
17.08.2019 08:00:00 16,8 15,5 11 6 14 8 SSW 1015,1 -
17.08.2019 07:00:00 16,8 15,5 10 6 14 8 SSW 1015,0 0,0
17.08.2019 06:00:00 16,9 15,6 6 3 13 7 SSW 1014,9 0,0
17.08.2019 05:00:00 16,7 15,4 10 6 13 7 SSW 1015,2 0,0
17.08.2019 04:00:00 17,2 15,9 10 6 13 7 SSW 1015,7 0,0
17.08.2019 03:00:00 17,5 16,2 10 5 13 7 SSW 1016,5 0,0
17.08.2019 02:00:00 18,0 16,6 9 5 14 8 SSW 1017,1 -
17.08.2019 01:00:00 18,2 16,9 10 5 13 7 SSW 1017,5 0,0
17.08.2019 00:00:00 18,9 17,4 7 4 11 6 S 1017,6 0,0
16.08.2019 23:00:00 20,0 17,9 5 3 12 7 W 1017,9 0,0
16.08.2019 22:00:00 20,4 18,3 10 6 19 10 W 1017,7 0,0
16.08.2019 21:00:00 20,9 18,8 13 7 24 13 WNW 1017,3 0,0
16.08.2019 20:00:00 22,2 18,8 10 5 18 10 WNW 1016,6 -

tt = temperature
td = dewpoint
ff = wind speed
fx = gusts
dd = wind direction
ppp = reduced air pressure
rr = precipitation

Next stations